| time (UTC) | temp C | wind direction | speed KPH | gust KPH | rain 1hr cm | rain 24hr cm | rain mn cm | humidity % | barometer mb |
| 20260507164558 | 27 | 169 | 1.6 | 8.0 | 0.00 | 0.00 | 0.00 | 23 | 1009.5 |
| 20260507163056 | 27 | 169 | 3.2 | 6.4 | 0.00 | 0.00 | 0.00 | 22 | 1009.5 |
| 20260507161550 | 26 | 360 | 1.6 | 4.8 | 0.00 | 0.00 | 0.00 | 23 | 1009.7 |
| 20260507160045 | 25 | 360 | 0.0 | 4.8 | 0.00 | 0.00 | 0.00 | 25 | 1009.9 |
| 20260507154547 | 25 | 360 | 1.6 | 6.4 | 0.00 | 0.00 | 0.00 | 29 | 1009.9 |
| 20260507153046 | 24 | 360 | 1.6 | 6.4 | 0.00 | 0.00 | 0.00 | 30 | 1009.9 |
| 20260507151536 | 24 | 360 | 1.6 | 8.0 | 0.00 | 0.00 | 0.00 | 30 | 1009.9 |
| 20260507150036 | 24 | 360 | 1.6 | 8.0 | 0.00 | 0.00 | 0.00 | 30 | 1009.9 |
| 20260507144528 | 23 | 360 | 3.2 | 8.0 | 0.00 | 0.00 | 0.00 | 27 | 1009.9 |
| 20260507143027 | 22 | 360 | 3.2 | 6.4 | 0.00 | 0.00 | 0.00 | 29 | 1009.9 |
| 20260507141519 | 21 | 360 | 3.2 | 8.0 | 0.00 | 0.00 | 0.00 | 30 | 1009.8 |
| 20260507140018 | 21 | 360 | 3.2 | 6.4 | 0.00 | 0.00 | 0.00 | 31 | 1009.8 |
| 20260507134517 | 20 | 360 | 4.8 | 8.0 | 0.00 | 0.00 | 0.00 | 33 | 1009.7 |
| 20260507133016 | 20 | 360 | 3.2 | 14.5 | 0.00 | 0.00 | 0.00 | 31 | 1009.6 |
| 20260507131520 | 20 | 360 | 8.0 | 19.3 | 0.00 | 0.00 | 0.00 | 31 | 1009.3 |
| 20260507130013 | 19 | 360 | 6.4 | 14.5 | 0.00 | 0.00 | 0.00 | 32 | 1009.3 |
| 20260507124511 | 18 | 360 | 4.8 | 9.7 | 0.00 | 0.00 | 0.00 | 32 | 1009.4 |
| 20260507123011 | 19 | 360 | 0.0 | 4.8 | 0.00 | 0.00 | 0.00 | 33 | 1009.4 |
| 20260507121510 | 19 | 360 | 3.2 | 9.7 | 0.00 | 0.00 | 0.00 | 32 | 1009.3 |
| 20260507120023 | 19 | 360 | 4.8 | 9.7 | 0.00 | 0.00 | 0.00 | 32 | 1009.3 |
| 20260507114616 | 19 | 360 | 3.2 | 8.0 | 0.00 | 0.00 | 0.00 | 31 | 1009.4 |
| 20260507113008 | 19 | 360 | 4.8 | 14.5 | 0.00 | 0.00 | 0.00 | 31 | 1009.3 |
| 20260507111509 | 19 | 360 | 3.2 | 9.7 | 0.00 | 0.00 | 0.00 | 31 | 1009.3 |
| 20260507110005 | 19 | 360 | 3.2 | 9.7 | 0.00 | 0.00 | 0.00 | 31 | 1009.4 |
| 20260507104507 | 19 | 360 | 4.8 | 8.0 | 0.00 | 0.00 | 0.00 | 32 | 1009.5 |
| 20260507103002 | 19 | 360 | 1.6 | 6.4 | 0.00 | 0.00 | 0.00 | 33 | 1009.7 |
| 20260507101501 | 18 | 360 | 1.6 | 4.8 | 0.00 | 0.00 | 0.00 | 33 | 1009.8 |
| 20260507100059 | 19 | 360 | 1.6 | 6.4 | 0.00 | 0.00 | 0.00 | 33 | 1009.8 |
| 20260507094557 | 19 | 360 | 1.6 | 4.8 | 0.00 | 0.00 | 0.00 | 33 | 1010.0 |
| 20260507093058 | 19 | 360 | 1.6 | 4.8 | 0.00 | 0.00 | 0.00 | 33 | 1010.1 |
| 20260507091556 | 20 | 360 | 1.6 | 6.4 | 0.00 | 0.00 | 0.00 | 33 | 1010.1 |
| 20260507090055 | 20 | 360 | 3.2 | 6.4 | 0.00 | 0.00 | 0.00 | 32 | 1010.1 |
| 20260507084554 | 20 | 360 | 3.2 | 4.8 | 0.00 | 0.00 | 0.00 | 33 | 1010.3 |
| 20260507083048 | 20 | 360 | 0.0 | 3.2 | 0.00 | 0.00 | 0.00 | 32 | 1010.3 |
| 20260507081550 | 20 | 360 | 1.6 | 4.8 | 0.00 | 0.00 | 0.00 | 32 | 1010.4 |
| 20260507080048 | 20 | 360 | 1.6 | 4.8 | 0.00 | 0.00 | 0.00 | 32 | 1010.5 |
| 20260507074558 | 20 | 360 | 0.0 | 3.2 | 0.00 | 0.00 | 0.00 | 32 | 1010.5 |
| 20260507073042 | 20 | 360 | 1.6 | 3.2 | 0.00 | 0.00 | 0.00 | 32 | 1010.6 |
| 20260507071539 | 21 | 360 | 0.0 | 0.0 | 0.00 | 0.00 | 0.00 | 31 | 1010.5 |
| 20260507070037 | 21 | 360 | 0.0 | 3.2 | 0.00 | 0.00 | 0.00 | 31 | 1010.4 |
| 20260507064536 | 21 | 360 | 1.6 | 3.2 | 0.00 | 0.00 | 0.00 | 31 | 1010.4 |
| 20260507063036 | 21 | 360 | 0.0 | 0.0 | 0.00 | 0.00 | 0.00 | 31 | 1010.4 |
| 20260507061535 | 21 | 360 | 0.0 | 3.2 | 0.00 | 0.00 | 0.00 | 31 | 1010.4 |
| 20260507060034 | 21 | 360 | 0.0 | 0.0 | 0.00 | 0.00 | 0.00 | 30 | 1010.4 |
| 20260507054537 | 22 | 360 | 0.0 | 0.0 | 0.00 | 0.00 | 0.00 | 30 | 1010.3 |
| 20260507053035 | 22 | 360 | 0.0 | 0.0 | 0.00 | 0.00 | 0.00 | 28 | 1010.3 |
| 20260507051533 | 22 | 360 | 0.0 | 1.6 | 0.00 | 0.00 | 0.00 | 28 | 1010.3 |
| 20260507050032 | 22 | 360 | 0.0 | 0.0 | 0.00 | 0.00 | 0.00 | 27 | 1010.2 |
| 20260507044535 | 23 | 360 | 0.0 | 0.0 | 0.00 | 0.00 | 0.00 | 26 | 1010.2 |
| 20260507043032 | 23 | 360 | 0.0 | 0.0 | 0.00 | 0.00 | 0.00 | 26 | 1010.0 |
| 20260507041531 | 24 | 360 | 0.0 | 0.0 | 0.00 | 0.00 | 0.00 | 25 | 1009.9 |
| 20260507040030 | 24 | 360 | 0.0 | 0.0 | 0.00 | 0.00 | 0.00 | 24 | 1009.7 |
| 20260507034530 | 25 | 360 | 0.0 | 1.6 | 0.00 | 0.00 | 0.00 | 23 | 1009.5 |
| 20260507033032 | 25 | 360 | 0.0 | 1.6 | 0.00 | 0.00 | 0.00 | 22 | 1009.3 |
| 20260507031529 | 26 | 360 | 0.0 | 4.8 | 0.00 | 0.00 | 0.00 | 22 | 1009.2 |
| 20260507030027 | 26 | 360 | 0.0 | 3.2 | 0.00 | 0.00 | 0.00 | 21 | 1008.9 |
| 20260507024529 | 26 | 360 | 1.6 | 6.4 | 0.00 | 0.00 | 0.00 | 20 | 1008.8 |
| 20260507023028 | 26 | 360 | 1.6 | 6.4 | 0.00 | 0.00 | 0.00 | 20 | 1008.6 |
| 20260507021525 | 26 | 360 | 3.2 | 9.7 | 0.00 | 0.00 | 0.00 | 20 | 1008.5 |
| 20260507020025 | 27 | 360 | 1.6 | 8.0 | 0.00 | 0.00 | 0.00 | 20 | 1008.3 |
| 20260507014533 | 27 | 360 | 1.6 | 9.7 | 0.00 | 0.00 | 0.00 | 19 | 1008.3 |
| 20260507013024 | 29 | 360 | 4.8 | 8.0 | 0.00 | 0.00 | 0.00 | 18 | 1008.3 |
| 20260507011523 | 28 | 360 | 4.8 | 14.5 | 0.00 | 0.00 | 0.00 | 18 | 1008.4 |
| 20260507010022 | 28 | 360 | 1.6 | 14.5 | 0.00 | 0.00 | 0.00 | 19 | 1008.4 |
| 20260507004523 | 30 | 360 | 3.2 | 14.5 | 0.00 | 0.00 | 0.00 | 17 | 1008.3 |
| 20260507003022 | 30 | 360 | 3.2 | 8.0 | 0.00 | 0.00 | 0.00 | 18 | 1008.3 |
| 20260507001525 | 30 | 360 | 4.8 | 16.1 | 0.00 | 0.00 | 0.00 | 18 | 1008.2 |
| 20260507000031 | 30 | 360 | 1.6 | 9.7 | 0.00 | 0.00 | 0.00 | 18 | 1008.2 |
| 20260506234519 | 30 | 360 | 8.0 | 16.1 | 0.00 | 0.00 | 0.00 | 17 | 1008.3 |
| 20260506233017 | 30 | 360 | 6.4 | 14.5 | 0.00 | 0.00 | 0.00 | 18 | 1008.5 |
| 20260506231515 | 32 | 360 | 1.6 | 4.8 | 0.00 | 0.00 | 0.00 | 17 | 1008.5 |
| 20260506230013 | 31 | 360 | 3.2 | 8.0 | 0.00 | 0.00 | 0.00 | 18 | 1008.9 |
| 20260506224510 | 28 | 360 | 3.2 | 8.0 | 0.00 | 0.00 | 0.00 | 19 | 1009.1 |
| 20260506223008 | 29 | 360 | 3.2 | 16.1 | 0.00 | 0.00 | 0.00 | 19 | 1009.2 |
| 20260506221506 | 30 | 360 | 1.6 | 12.9 | 0.00 | 0.00 | 0.00 | 20 | 1009.3 |
| 20260506220007 | 30 | 360 | 0.0 | 6.4 | 0.00 | 0.00 | 0.00 | 19 | 1009.5 |
| 20260506214501 | 29 | 360 | 3.2 | 8.0 | 0.00 | 0.00 | 0.00 | 20 | 1009.9 |
| 20260506213115 | 27 | 360 | 9.7 | 17.7 | 0.00 | 0.00 | 0.00 | 20 | 1010.1 |
| 20260506211558 | 28 | 360 | 8.0 | 16.1 | 0.00 | 0.00 | 0.00 | 19 | 1010.4 |
| 20260506210057 | 27 | 360 | 3.2 | 16.1 | 0.00 | 0.00 | 0.00 | 21 | 1010.5 |
| 20260506204556 | 27 | 360 | 8.0 | 16.1 | 0.00 | 0.00 | 0.00 | 21 | 1010.7 |
| 20260506203055 | 27 | 360 | 3.2 | 12.9 | 0.00 | 0.00 | 0.00 | 21 | 1011.1 |
| 20260506201554 | 27 | 360 | 1.6 | 9.7 | 0.00 | 0.00 | 0.00 | 23 | 1011.1 |
| 20260506200053 | 27 | 360 | 4.8 | 17.7 | 0.00 | 0.00 | 0.00 | 22 | 1011.2 |
| 20260506194611 | 27 | 360 | 3.2 | 12.9 | 0.00 | 0.00 | 0.00 | 21 | 1011.3 |
| 20260506193057 | 26 | 360 | 3.2 | 12.9 | 0.00 | 0.00 | 0.00 | 27 | 1011.5 |
| 20260506191549 | 26 | 360 | 4.8 | 12.9 | 0.00 | 0.00 | 0.00 | 22 | 1011.8 |
| 20260506190046 | 26 | 360 | 6.4 | 12.9 | 0.00 | 0.00 | 0.00 | 23 | 1011.9 |
| 20260506184546 | 25 | 360 | 3.2 | 9.7 | 0.00 | 0.00 | 0.00 | 24 | 1012.1 |
| 20260506183046 | 26 | 360 | 4.8 | 14.5 | 0.00 | 0.00 | 0.00 | 25 | 1012.4 |
| 20260506181542 | 25 | 360 | 3.2 | 8.0 | 0.00 | 0.00 | 0.00 | 27 | 1012.6 |
| 20260506180047 | 24 | 360 | 1.6 | 14.5 | 0.00 | 0.00 | 0.00 | 30 | 1012.7 |
| 20260506174544 | 24 | 360 | 6.4 | 14.5 | 0.00 | 0.00 | 0.00 | 28 | 1012.7 |
| 20260506173039 | 23 | 360 | 3.2 | 12.9 | 0.00 | 0.00 | 0.00 | 28 | 1012.8 |
| 20260506171534 | 24 | 360 | 1.6 | 8.0 | 0.00 | 0.00 | 0.00 | 28 | 1012.7 |
| 20260506170031 | 23 | 360 | 1.6 | 6.4 | 0.00 | 0.00 | 0.00 | 32 | 1012.7 |